CheckWX is a tool to help pilots better visualize weather data.  It is not intended as a substitute for an official pre-flight weather briefing.

21:28:11 UTC

WIDD METAR
Hang Nadim International Airport
Batam Island, Indonesia
Current

7 hours ago

WIDD 091400Z 03007KT 9999 FEW014 25/24 Q1014
Observed
Dec-9 @ 14:00 UTC
Wind
  • 030° at 7 KTS
Visibility
10,000+ meters
Flight Rules
VFR
Cloud Levels
  • Few at 1,400' AGL
Temperature
25°C / 77°F
Dewpoint
24°C / 75°F
Humidity
94%
Altimeter
29.94" Hg
Pressure
1013.92 hPa
Previous

8 hours ago

WIDD 091330Z 02008KT 9999 FEW014 25/23 Q1014
Observed
Dec-9 @ 13:30 UTC
Wind
  • 020° at 8 KTS
Visibility
10,000+ meters
Flight Rules
VFR
Cloud Levels
  • Few at 1,400' AGL
Temperature
25°C / 77°F
Dewpoint
23°C / 73°F
Humidity
89%
Altimeter
29.94" Hg
Pressure
1013.92 hPa
Previous

8 hours ago

WIDD 091300Z 02006KT 9999 FEW014 24/24 Q1014
Observed
Dec-9 @ 13:00 UTC
Wind
  • 020° at 6 KTS
Visibility
10,000+ meters
Flight Rules
VFR
Cloud Levels
  • Few at 1,400' AGL
Temperature
24°C / 75°F
Dewpoint
24°C / 75°F
Humidity
100%
Altimeter
29.94" Hg
Pressure
1013.92 hPa